Time;durP1;ratioP1;P1;durP2;ratioP2;P2;SDS_P1;SDS_P2;PMS_P1;PMS_P2;Temp;Humidity;BMP_temperature;BMP_pressure;BME280_temperature;BME280_humidity;BME280_pressure;Samples;Min_cycle;Max_cycle;Signal;HPM_P1;HPM_P2
2024/02/14 00:01:08;;;;;;;;;;;;;;;18.13;66.01;100560.16;7392821;19;1468;-36
2024/02/14 00:03:38;;;;;;;;;;;;;;;18.11;65.73;100556.78;7392931;19;1772;-35
2024/02/14 00:06:06;;;;;;;;;;;;;;;18.06;66.05;100553.66;7394008;19;1041;-35
2024/02/14 00:08:37;;;;;;;;;;;;;;;18.17;65.76;100558.06;7394239;19;1832;-36
2024/02/14 00:11:06;;;;;;;;;;;;;;;18.20;65.36;100547.91;7389388;19;1891;-36
2024/02/14 00:13:35;;;;;;;;;;;;;;;18.19;65.39;100548.91;7391182;19;1455;-35
2024/02/14 00:16:04;;;;;;;;;;;;;;;18.18;65.56;100557.06;7388577;19;2090;-36
2024/02/14 00:18:32;;;;;;;;;;;;;;;18.13;65.76;100568.19;7391753;19;1308;-36
2024/02/14 00:21:00;;;;;;;;;;;;;;;18.05;65.83;100555.47;7390495;19;1470;-36
2024/02/14 00:23:29;;;;;;;;;;;;;;;18.12;65.86;100574.53;7392562;19;1551;-36
2024/02/14 00:26:00;;;;;;;;;;;;;;;18.10;65.75;100563.09;7391934;19;1514;-35
2024/02/14 00:28:29;;;;;;;;;;;;;;;18.04;65.76;100569.00;7391249;19;1209;-36
2024/02/14 00:30:57;;;;;;;;;;;;;;;18.02;65.95;100578.97;7388476;19;1844;-35
2024/02/14 00:33:25;;;;;;;;;;;;;;;17.99;66.18;100555.19;7387151;19;1300;-35
2024/02/14 00:35:54;;;;;;;;;;;;;;;18.04;65.91;100577.03;7390631;19;1609;-36
2024/02/14 00:38:22;;;;;;;;;;;;;;;17.98;65.99;100569.53;7391566;19;1549;-36
2024/02/14 00:40:50;;;;;;;;;;;;;;;17.99;66.00;100566.72;7390811;19;1372;-36
2024/02/14 00:43:21;;;;;;;;;;;;;;;18.00;65.88;100576.44;7389893;19;1565;-35
2024/02/14 00:45:50;;;;;;;;;;;;;;;18.19;65.51;100594.41;7387939;19;1490;-35
2024/02/14 00:48:18;;;;;;;;;;;;;;;18.17;65.53;100576.81;7391708;19;1490;-36
2024/02/14 00:50:47;;;;;;;;;;;;;;;18.06;65.59;100593.78;7388042;19;1843;-36
2024/02/14 00:53:16;;;;;;;;;;;;;;;18.04;65.73;100599.25;7375213;19;1563;-35
2024/02/14 00:55:44;;;;;;;;;;;;;;;18.04;65.73;100585.06;7390314;19;1484;-34
2024/02/14 00:58:12;;;;;;;;;;;;;;;18.05;65.72;100594.78;7392314;19;1121;-36
2024/02/14 01:00:44;;;;;;;;;;;;;;;18.07;65.73;100598.19;7390217;19;1839;-40
2024/02/14 01:03:14;;;;;;;;;;;;;;;18.03;65.86;100589.56;7388816;19;2075;-36
2024/02/14 01:05:43;;;;;;;;;;;;;;;18.04;65.67;100601.94;7390694;19;1368;-36
2024/02/14 01:08:12;;;;;;;;;;;;;;;18.00;65.76;100594.31;7390107;19;1720;-35
2024/02/14 01:10:41;;;;;;;;;;;;;;;18.01;65.84;100602.22;7387627;19;1873;-36
2024/02/14 01:13:09;;;;;;;;;;;;;;;17.98;65.73;100601.63;7390196;19;1755;-36
2024/02/14 01:15:37;;;;;;;;;;;;;;;18.03;65.81;100575.34;7391170;19;1248;-35
2024/02/14 01:18:08;;;;;;;;;;;;;;;17.97;65.82;100598.13;7388400;19;1894;-35
2024/02/14 01:20:37;;;;;;;;;;;;;;;17.95;66.04;100594.72;7388670;19;1518;-35
2024/02/14 01:23:06;;;;;;;;;;;;;;;17.87;66.07;100590.03;7388832;19;1691;-35
2024/02/14 01:25:35;;;;;;;;;;;;;;;17.91;66.05;100576.41;7389132;19;1164;-36
2024/02/14 01:28:05;;;;;;;;;;;;;;;17.94;66.02;100595.69;7389788;19;1847;-35
2024/02/14 01:30:33;;;;;;;;;;;;;;;18.02;65.54;100587.84;7388545;19;1858;-35
2024/02/14 01:33:03;;;;;;;;;;;;;;;18.06;65.60;100585.75;7387941;19;1650;-35
2024/02/14 01:35:34;;;;;;;;;;;;;;;17.99;65.62;100581.94;7389230;19;1264;-35
2024/02/14 01:38:03;;;;;;;;;;;;;;;18.01;65.64;100582.66;7389635;19;1927;-34
2024/02/14 01:40:31;;;;;;;;;;;;;;;17.93;66.02;100577.97;7389134;19;1768;-35
2024/02/14 01:43:00;;;;;;;;;;;;;;;17.87;66.01;100578.50;7387144;19;1444;-36
2024/02/14 01:45:29;;;;;;;;;;;;;;;17.83;66.03;100601.97;7388158;19;1248;-41
2024/02/14 01:47:58;;;;;;;;;;;;;;;17.94;65.80;100600.22;7389393;19;1510;-39
2024/02/14 01:50:29;;;;;;;;;;;;;;;17.94;65.68;100608.22;7387885;19;2293;-35
2024/02/14 01:53:01;;;;;;;;;;;;;;;17.82;66.03;100599.41;7373540;19;1510;-37
2024/02/14 01:55:30;;;;;;;;;;;;;;;17.88;65.81;100602.41;7390035;19;1047;-37
2024/02/14 01:57:59;;;;;;;;;;;;;;;17.99;65.75;100611.38;7388590;19;1903;-39
2024/02/14 02:00:28;;;;;;;;;;;;;;;17.89;65.84;100606.81;7389284;19;1872;-36
2024/02/14 02:02:57;;;;;;;;;;;;;;;17.91;66.07;100595.13;7386903;19;1907;-36
2024/02/14 02:05:25;;;;;;;;;;;;;;;18.05;65.40;100603.66;7387997;19;1811;-36
2024/02/14 02:07:54;;;;;;;;;;;;;;;18.31;65.12;100607.72;7389619;19;1661;-40
2024/02/14 02:10:25;;;;;;;;;;;;;;;18.46;64.41;100609.88;7387625;19;1845;-36
2024/02/14 02:12:54;;;;;;;;;;;;;;;18.27;65.03;100597.28;7388400;19;1245;-35
2024/02/14 02:15:22;;;;;;;;;;;;;;;18.19;65.17;100606.97;7389263;19;991;-36
2024/02/14 02:17:52;;;;;;;;;;;;;;;18.13;65.29;100607.50;7388102;19;1560;-41
2024/02/14 02:20:20;;;;;;;;;;;;;;;17.99;65.87;100606.88;7387316;19;1736;-36
2024/02/14 02:22:52;;;;;;;;;;;;;;;18.02;65.56;100608.41;7386171;19;1523;-34
2024/02/14 02:25:23;;;;;;;;;;;;;;;17.98;65.61;100615.00;7386608;19;1393;-35
2024/02/14 02:27:51;;;;;;;;;;;;;;;18.04;65.54;100627.84;7388547;19;1619;-34
2024/02/14 02:30:20;;;;;;;;;;;;;;;18.04;65.39;100619.84;7386846;19;1851;-35
2024/02/14 02:32:50;;;;;;;;;;;;;;;17.98;65.74;100625.72;7387482;19;1594;-35
2024/02/14 02:35:19;;;;;;;;;;;;;;;17.99;65.65;100640.81;7388522;19;1375;-35
2024/02/14 02:37:50;;;;;;;;;;;;;;;17.93;65.80;100628.81;7388001;19;1288;-35
2024/02/14 02:40:21;;;;;;;;;;;;;;;17.92;65.89;100629.75;7387989;19;1447;-39
2024/02/14 02:42:50;;;;;;;;;;;;;;;17.98;65.77;100644.44;7385797;19;1614;-36
2024/02/14 02:45:19;;;;;;;;;;;;;;;17.95;65.64;100658.94;7386400;19;1499;-34
2024/02/14 02:47:47;;;;;;;;;;;;;;;17.91;66.05;100651.31;7385734;19;1296;-35
2024/02/14 02:50:16;;;;;;;;;;;;;;;17.92;65.72;100656.50;7387632;19;1846;-35
2024/02/14 02:52:44;;;;;;;;;;;;;;;17.97;65.76;100638.25;7373412;19;1205;-35
2024/02/14 02:55:13;;;;;;;;;;;;;;;18.00;65.54;100650.50;7387546;19;1856;-34
2024/02/14 02:57:45;;;;;;;;;;;;;;;17.91;65.82;100656.66;7387320;19;1875;-34
2024/02/14 03:00:15;;;;;;;;;;;;;;;17.88;65.73;100660.44;7385623;19;2443;-35
2024/02/14 03:02:44;;;;;;;;;;;;;;;17.86;65.94;100657.03;7386635;19;1736;-35
2024/02/14 03:05:17;;;;;;;;;;;;;;;17.85;65.79;100674.94;7386456;19;1391;-40
2024/02/14 03:07:47;;;;;;;;;;;;;;;17.78;66.30;100659.50;7384274;19;1466;-40
2024/02/14 03:10:17;;;;;;;;;;;;;;;17.80;66.48;100668.22;7385425;19;1861;-40
2024/02/14 03:12:50;;;;;;;;;;;;;;;18.14;65.60;100663.53;7385156;19;2213;-39
2024/02/14 03:15:18;;;;;;;;;;;;;;;18.43;64.96;100668.22;7388116;19;1228;-40
2024/02/14 03:17:46;;;;;;;;;;;;;;;18.61;64.18;100674.63;7385228;19;1494;-40
2024/02/14 03:20:16;;;;;;;;;;;;;;;18.70;64.01;100683.66;7385971;19;1252;-40
2024/02/14 03:22:45;;;;;;;;;;;;;;;18.58;64.16;100674.91;7385840;19;1728;-40
2024/02/14 03:25:15;;;;;;;;;;;;;;;18.41;64.70;100678.22;7386464;19;1653;-35
2024/02/14 03:27:45;;;;;;;;;;;;;;;18.21;65.21;100680.78;7385197;19;1870;-34
2024/02/14 03:30:16;;;;;;;;;;;;;;;17.95;65.44;100647.41;7382738;19;1859;-35
2024/02/14 03:32:45;;;;;;;;;;;;;;;18.07;65.61;100687.31;7384857;19;1495;-35
2024/02/14 03:35:13;;;;;;;;;;;;;;;18.10;65.57;100683.53;7394209;19;1191;-35
2024/02/14 03:37:43;;;;;;;;;;;;;;;18.09;65.56;100688.03;7392780;19;1320;-36
2024/02/14 03:40:12;;;;;;;;;;;;;;;18.09;65.50;100709.44;7393876;19;1182;-36
2024/02/14 03:42:40;;;;;;;;;;;;;;;18.00;65.75;100694.16;7389508;19;1601;-36
2024/02/14 03:45:09;;;;;;;;;;;;;;;18.05;65.68;100702.66;7393578;19;1226;-35
2024/02/14 03:47:41;;;;;;;;;;;;;;;18.02;65.71;100712.78;7391983;19;1480;-35
2024/02/14 03:50:10;;;;;;;;;;;;;;;17.97;65.83;100704.31;7393192;19;1855;-35
2024/02/14 03:52:38;;;;;;;;;;;;;;;18.02;65.81;100708.25;7378124;19;1784;-35
2024/02/14 03:55:08;;;;;;;;;;;;;;;17.95;65.60;100711.59;7392600;19;1539;-35
2024/02/14 03:57:38;;;;;;;;;;;;;;;17.98;65.78;100711.34;7392322;19;1521;-34
2024/02/14 04:00:08;;;;;;;;;;;;;;;17.83;65.90;100703.63;7393785;19;1403;-35
2024/02/14 04:02:36;;;;;;;;;;;;;;;17.81;66.30;100720.75;7392051;19;1562;-35
2024/02/14 04:05:08;;;;;;;;;;;;;;;18.52;64.53;100726.31;7393483;19;1764;-35
2024/02/14 04:07:37;;;;;;;;;;;;;;;18.84;63.59;100728.03;7392307;19;1957;-35
2024/02/14 04:10:05;;;;;;;;;;;;;;;18.66;63.82;100730.44;7391295;19;1741;-35
2024/02/14 04:12:34;;;;;;;;;;;;;;;18.49;64.36;100739.97;7392424;19;1840;-35
2024/02/14 04:15:02;;;;;;;;;;;;;;;18.32;64.83;100730.69;7393236;19;1140;-36
2024/02/14 04:17:31;;;;;;;;;;;;;;;18.35;64.84;100734.97;7390775;19;1503;-35
2024/02/14 04:19:59;;;;;;;;;;;;;;;18.60;64.27;100739.03;7390911;19;1534;-35
2024/02/14 04:22:30;;;;;;;;;;;;;;;18.56;64.41;100733.13;7390272;19;1793;-35
2024/02/14 04:24:58;;;;;;;;;;;;;;;18.46;64.42;100742.91;7391180;19;1804;-40
2024/02/14 04:27:26;;;;;;;;;;;;;;;18.28;64.96;100746.22;7387749;19;1523;-35
2024/02/14 04:29:55;;;;;;;;;;;;;;;18.38;64.83;100748.06;7391999;19;1592;-35
2024/02/14 04:32:24;;;;;;;;;;;;;;;18.69;64.16;100733.72;7390041;19;1889;-35
2024/02/14 04:34:52;;;;;;;;;;;;;;;18.97;63.35;100744.72;7391339;19;1091;-35
2024/02/14 04:37:21;;;;;;;;;;;;;;;18.77;63.74;100750.97;7389767;19;1886;-43
2024/02/14 04:39:52;;;;;;;;;;;;;;;18.57;64.40;100761.56;7391579;19;1529;-40
2024/02/14 04:42:21;;;;;;;;;;;;;;;18.43;64.89;100744.03;7388318;19;1492;-41
2024/02/14 04:44:49;;;;;;;;;;;;;;;18.49;64.89;100770.28;7392100;19;1284;-39
2024/02/14 04:47:17;;;;;;;;;;;;;;;18.71;63.85;100732.75;7390797;19;1843;-39
2024/02/14 04:49:46;;;;;;;;;;;;;;;18.87;63.62;100773.31;7390250;19;1305;-35
2024/02/14 04:52:15;;;;;;;;;;;;;;;18.60;63.19;100766.69;7384746;19;1910;-41
2024/02/14 04:54:43;;;;;;;;;;;;;;;18.42;63.97;100776.28;7372587;19;1769;-40
2024/02/14 04:57:15;;;;;;;;;;;;;;;18.38;64.17;100774.84;7387139;19;1506;-40
2024/02/14 04:59:43;;;;;;;;;;;;;;;18.55;64.01;100782.28;7387170;19;1503;-42
2024/02/14 05:02:11;;;;;;;;;;;;;;;18.73;63.38;100777.16;7387862;19;1561;-39
2024/02/14 05:04:40;;;;;;;;;;;;;;;18.55;63.93;100782.28;7390422;19;1649;-34
2024/02/14 05:07:09;;;;;;;;;;;;;;;18.49;64.06;100799.72;7387073;19;1551;-34
2024/02/14 05:09:37;;;;;;;;;;;;;;;18.40;64.29;100797.84;7386773;19;1653;-34
2024/02/14 05:12:06;;;;;;;;;;;;;;;18.56;64.24;100784.00;7385221;19;1859;-36
2024/02/14 05:14:40;;;;;;;;;;;;;;;18.77;63.57;100802.69;7386417;19;1938;-36
2024/02/14 05:17:09;;;;;;;;;;;;;;;18.63;63.65;100805.72;7385880;19;1577;-34
2024/02/14 05:19:37;;;;;;;;;;;;;;;18.45;64.40;100805.47;7383904;19;1581;-37
2024/02/14 05:22:05;;;;;;;;;;;;;;;18.22;63.77;100821.69;7389405;19;1561;-41
2024/02/14 05:24:35;;;;;;;;;;;;;;;18.53;63.00;100816.38;7390544;19;1314;-34
2024/02/14 05:27:03;;;;;;;;;;;;;;;18.68;62.35;100815.06;7391218;19;1020;-34
2024/02/14 05:29:33;;;;;;;;;;;;;;;18.55;62.41;100829.66;7390461;19;1132;-34
2024/02/14 05:32:04;;;;;;;;;;;;;;;18.45;63.09;100837.63;7386950;19;1862;-34
2024/02/14 05:34:32;;;;;;;;;;;;;;;18.35;63.23;100845.56;7390558;19;1588;-36
2024/02/14 05:37:00;;;;;;;;;;;;;;;18.35;63.06;100848.25;7389553;19;1510;-35
2024/02/14 05:39:29;;;;;;;;;;;;;;;18.54;62.60;100839.50;7393029;19;1705;-39
2024/02/14 05:41:57;;;;;;;;;;;;;;;18.82;61.53;100834.47;7392269;19;1042;-34
2024/02/14 05:44:27;;;;;;;;;;;;;;;18.57;61.88;100849.13;7390900;19;1749;-38
2024/02/14 05:46:53;;;;;;;;;;;;;;;18.48;62.31;100848.03;7389915;19;1415;-34
2024/02/14 05:49:24;;;;;;;;;;;;;;;18.33;62.57;100844.00;7390760;19;1517;-36
2024/02/14 05:51:53;;;;;;;;;;;;;;;18.42;62.30;100878.03;7389291;19;1864;-34
2024/02/14 05:54:21;;;;;;;;;;;;;;;18.61;61.64;100870.13;7374576;19;2548;-34
2024/02/14 05:56:50;;;;;;;;;;;;;;;18.73;61.06;100870.09;7387116;19;1269;-40
2024/02/14 05:59:18;;;;;;;;;;;;;;;18.58;61.40;100899.88;7388734;19;1732;-40
2024/02/14 06:01:46;;;;;;;;;;;;;;;18.46;61.55;100892.84;7388439;19;1363;-40
2024/02/14 06:04:15;;;;;;;;;;;;;;;18.31;62.03;100883.44;7390894;19;1677;-40
2024/02/14 06:06:46;;;;;;;;;;;;;;;18.38;61.99;100893.53;7391318;19;1595;-40
2024/02/14 06:09:14;;;;;;;;;;;;;;;18.67;60.85;100883.00;7390597;19;1507;-42
2024/02/14 06:11:44;;;;;;;;;;;;;;;18.58;61.06;100896.31;7389064;19;1866;-35
2024/02/14 06:14:12;;;;;;;;;;;;;;;18.46;61.30;100909.78;7389355;19;1765;-35
2024/02/14 06:16:40;;;;;;;;;;;;;;;18.29;61.73;100913.84;7389542;19;1548;-35
2024/02/14 06:19:10;;;;;;;;;;;;;;;18.29;61.57;100911.19;7389235;19;1745;-34
2024/02/14 06:21:38;;;;;;;;;;;;;;;18.53;61.16;100909.28;7386618;19;1155;-37
2024/02/14 06:24:10;;;;;;;;;;;;;;;18.52;60.97;100919.09;7389308;19;1785;-36
2024/02/14 06:26:38;;;;;;;;;;;;;;;18.43;60.92;100919.91;7390060;19;1747;-47
2024/02/14 06:29:07;;;;;;;;;;;;;;;18.38;61.38;100914.06;7388966;19;1858;-44
2024/02/14 06:31:35;;;;;;;;;;;;;;;18.31;61.20;100908.38;7388060;19;1859;-40
2024/02/14 06:34:03;;;;;;;;;;;;;;;18.52;60.67;100935.19;7388944;19;1694;-39
2024/02/14 06:36:31;;;;;;;;;;;;;;;18.51;60.41;100925.47;7387226;19;2187;-40
2024/02/14 06:39:00;;;;;;;;;;;;;;;18.35;60.95;100928.56;7388088;19;971;-40
2024/02/14 06:41:31;;;;;;;;;;;;;;;18.28;61.07;100913.97;7387333;19;1863;-40
2024/02/14 06:44:00;;;;;;;;;;;;;;;18.28;61.10;100938.06;7388859;19;1504;-40
2024/02/14 06:46:28;;;;;;;;;;;;;;;18.65;60.02;100932.34;7388277;19;1732;-39
2024/02/14 06:48:57;;;;;;;;;;;;;;;18.72;59.81;100940.69;7387722;19;1645;-43
2024/02/14 06:51:26;;;;;;;;;;;;;;;18.62;60.07;100924.53;7385518;19;1835;-36
2024/02/14 06:53:54;;;;;;;;;;;;;;;18.49;60.35;100944.31;7371344;19;1200;-36
2024/02/14 06:56:23;;;;;;;;;;;;;;;18.24;60.64;100942.84;7387904;19;1523;-40
2024/02/14 06:58:59;;;;;;;;;;;;;;;18.21;59.94;100937.75;7385943;19;1558;-35
2024/02/14 07:01:28;;;;;;;;;;;;;;;18.62;59.22;100945.97;7387382;19;1715;-34
2024/02/14 07:03:57;;;;;;;;;;;;;;;18.86;58.94;100949.31;7387823;19;1285;-36
2024/02/14 07:06:25;;;;;;;;;;;;;;;18.78;58.81;100956.25;7388419;19;1903;-44
2024/02/14 07:08:53;;;;;;;;;;;;;;;18.66;58.95;100969.72;7390413;19;1431;-37
2024/02/14 07:11:22;;;;;;;;;;;;;;;18.48;59.80;100977.47;7393147;19;1843;-48
2024/02/14 07:13:50;;;;;;;;;;;;;;;18.31;60.16;100969.13;7392368;19;1452;-35
2024/02/14 07:16:21;;;;;;;;;;;;;;;18.60;59.42;100967.56;7396085;19;1420;-40
2024/02/14 07:18:49;;;;;;;;;;;;;;;18.78;59.01;100964.28;7395132;19;1555;-40
2024/02/14 07:21:18;;;;;;;;;;;;;;;18.95;58.56;100974.47;7393946;19;1804;-35
2024/02/14 07:23:47;;;;;;;;;;;;;;;19.14;57.96;100968.41;7389664;19;1823;-36
2024/02/14 07:26:15;;;;;;;;;;;;;;;19.21;57.85;100979.44;7393968;19;1804;-41
2024/02/14 07:28:44;;;;;;;;;;;;;;;19.23;57.73;100969.44;7393482;19;2057;-48
2024/02/14 07:31:12;;;;;;;;;;;;;;;19.23;57.50;100990.88;7395517;19;1046;-39
2024/02/14 07:33:44;;;;;;;;;;;;;;;19.24;57.54;100985.41;7393876;19;1486;-35
2024/02/14 07:36:12;;;;;;;;;;;;;;;19.26;57.69;100987.94;7393702;19;1499;-36
2024/02/14 07:38:42;;;;;;;;;;;;;;;19.26;57.43;100988.78;7392579;19;2345;-35
2024/02/14 07:41:10;;;;;;;;;;;;;;;19.29;57.43;100987.66;7394517;19;1407;-35
2024/02/14 07:43:39;;;;;;;;;;;;;;;19.32;57.51;100991.91;7394885;19;1704;-35
2024/02/14 07:46:08;;;;;;;;;;;;;;;19.31;57.44;100991.06;7395557;19;1536;-34
2024/02/14 07:48:36;;;;;;;;;;;;;;;19.28;57.27;101004.75;7390515;19;1818;-36
2024/02/14 07:51:09;;;;;;;;;;;;;;;19.32;57.24;101008.00;7389965;19;2203;-36
2024/02/14 07:53:38;;;;;;;;;;;;;;;19.33;57.16;101010.56;7377598;19;1855;-35
2024/02/14 07:56:06;;;;;;;;;;;;;;;19.35;57.20;101010.44;7393311;19;1277;-40
2024/02/14 07:58:35;;;;;;;;;;;;;;;19.30;57.09;101010.84;7391257;19;1777;-35
2024/02/14 08:01:03;;;;;;;;;;;;;;;19.31;57.20;101009.00;7393434;19;1256;-35
2024/02/14 08:03:32;;;;;;;;;;;;;;;19.35;57.15;100999.72;7393884;19;1034;-35
2024/02/14 08:06:00;;;;;;;;;;;;;;;19.32;57.24;101003.50;7390639;19;1851;-38
2024/02/14 08:08:31;;;;;;;;;;;;;;;19.32;57.29;101008.00;7387839;19;1481;-35
2024/02/14 08:11:00;;;;;;;;;;;;;;;19.26;57.31;101014.75;7390698;19;1649;-37
2024/02/14 08:13:28;;;;;;;;;;;;;;;18.87;56.51;101025.19;7391421;19;1910;-42
2024/02/14 08:15:58;;;;;;;;;;;;;;;18.88;55.82;101045.66;7392533;19;1482;-40
2024/02/14 08:18:27;;;;;;;;;;;;;;;19.14;54.73;101042.59;7391848;19;1929;-34
2024/02/14 08:20:55;;;;;;;;;;;;;;;19.14;54.53;101021.16;7392344;19;1448;-35
2024/02/14 08:23:23;;;;;;;;;;;;;;;19.01;54.59;101030.22;7393073;19;1463;-36
2024/02/14 08:25:54;;;;;;;;;;;;;;;19.05;54.13;101030.81;7393257;19;1364;-35
2024/02/14 08:28:23;;;;;;;;;;;;;;;19.05;54.42;101045.06;7394835;19;1200;-35
2024/02/14 08:30:51;;;;;;;;;;;;;;;19.13;54.48;101048.94;7390355;19;1824;-37
2024/02/14 08:33:20;;;;;;;;;;;;;;;19.24;54.28;101038.19;7389381;19;1899;-36
2024/02/14 08:35:48;;;;;;;;;;;;;;;19.19;54.74;101043.91;7383759;19;1498;-42
2024/02/14 08:38:17;;;;;;;;;;;;;;;18.93;55.71;101045.25;7384107;19;1471;-40
2024/02/14 08:40:45;;;;;;;;;;;;;;;18.70;56.27;101056.00;7389118;19;1538;-42
2024/02/14 08:43:16;;;;;;;;;;;;;;;18.57;57.02;101053.50;7387998;19;1557;-42
2024/02/14 08:45:45;;;;;;;;;;;;;;;18.50;57.65;101068.34;7389258;19;1702;-41
2024/02/14 08:48:13;;;;;;;;;;;;;;;18.81;57.01;101041.78;7388232;19;1526;-37
2024/02/14 08:50:42;;;;;;;;;;;;;;;19.05;56.65;101058.47;7386324;19;1546;-35
2024/02/14 08:53:10;;;;;;;;;;;;;;;19.03;56.70;101055.06;7379794;19;1865;-36
2024/02/14 08:55:38;;;;;;;;;;;;;;;18.82;57.05;101059.53;7371944;19;1545;-35
2024/02/14 08:58:09;;;;;;;;;;;;;;;18.54;57.79;101063.59;7387748;19;1383;-34
2024/02/14 09:00:40;;;;;;;;;;;;;;;18.46;58.44;101069.59;7388037;19;1776;-34
2024/02/14 09:03:09;;;;;;;;;;;;;;;18.51;58.58;101069.22;7384769;19;1503;-40
2024/02/14 09:05:38;;;;;;;;;;;;;;;19.02;57.71;101082.00;7387670;19;1177;-46
2024/02/14 09:08:07;;;;;;;;;;;;;;;19.16;57.27;101079.03;7387872;19;1402;-35
2024/02/14 09:10:35;;;;;;;;;;;;;;;19.00;57.43;101058.03;7388164;19;1392;-41
2024/02/14 09:13:04;;;;;;;;;;;;;;;18.86;57.96;101082.41;7384724;19;1845;-41
2024/02/14 09:15:33;;;;;;;;;;;;;;;18.77;58.26;101085.84;7388438;19;1486;-40
2024/02/14 09:18:04;;;;;;;;;;;;;;;18.59;58.85;101093.56;7386299;19;1836;-42
2024/02/14 09:20:32;;;;;;;;;;;;;;;18.65;58.56;101077.81;7388018;19;1677;-42
2024/02/14 09:23:01;;;;;;;;;;;;;;;19.12;57.66;101071.34;7385143;19;1677;-41
2024/02/14 09:25:29;;;;;;;;;;;;;;;19.18;57.61;101081.56;7387036;19;1742;-42
2024/02/14 09:27:57;;;;;;;;;;;;;;;19.03;58.08;101089.06;7384828;19;1838;-36
2024/02/14 09:30:25;;;;;;;;;;;;;;;18.79;58.61;101081.22;7384647;19;1289;-36
2024/02/14 09:32:54;;;;;;;;;;;;;;;18.67;58.67;101077.72;7383459;19;1853;-37
2024/02/14 09:35:25;;;;;;;;;;;;;;;18.54;59.36;101059.09;7362891;19;2372;-36
2024/02/14 09:37:53;;;;;;;;;;;;;;;18.72;59.10;101064.81;7378609;19;1844;-38
2024/02/14 09:40:23;;;;;;;;;;;;;;;19.18;57.84;101081.56;7378013;19;1304;-35
2024/02/14 09:42:54;;;;;;;;;;;;;;;19.08;57.97;101071.63;7381460;19;1493;-40
2024/02/14 09:45:24;;;;;;;;;;;;;;;18.92;58.18;101076.59;7377644;19;1637;-50
2024/02/14 09:47:54;;;;;;;;;;;;;;;18.75;58.85;101075.25;7379982;19;1341;-44
2024/02/14 09:50:26;;;;;;;;;;;;;;;18.56;59.58;101075.91;7382858;19;1287;-44
2024/02/14 09:52:55;;;;;;;;;;;;;;;18.57;59.98;101088.31;7385767;19;1842;-41
2024/02/14 09:55:26;;;;;;;;;;;;;;;19.12;58.58;101095.47;7367812;19;1561;-36
2024/02/14 09:57:55;;;;;;;;;;;;;;;19.24;58.09;101083.75;7369129;19;1404;-35
2024/02/14 10:00:23;;;;;;;;;;;;;;;19.01;58.56;101073.13;7385697;19;1926;-36
2024/02/14 10:02:52;;;;;;;;;;;;;;;18.84;59.20;101068.28;7382826;19;1554;-36
2024/02/14 10:05:20;;;;;;;;;;;;;;;18.71;59.43;101072.97;7381608;19;1213;-37
2024/02/14 10:07:51;;;;;;;;;;;;;;;18.64;59.62;101076.13;7383732;19;1665;-41
2024/02/14 10:10:19;;;;;;;;;;;;;;;18.76;59.36;101084.13;7384227;19;1798;-36
2024/02/14 10:12:48;;;;;;;;;;;;;;;19.01;58.13;101073.13;7383760;19;1843;-36
2024/02/14 10:15:16;;;;;;;;;;;;;;;19.10;57.88;101073.31;7382693;19;980;-35
2024/02/14 10:17:45;;;;;;;;;;;;;;;18.96;58.08;101066.44;7378978;19;1900;-43
2024/02/14 10:20:19;;;;;;;;;;;;;;;18.74;58.47;101065.53;7380081;19;1494;-36
2024/02/14 10:22:48;;;;;;;;;;;;;;;18.56;58.99;101073.25;7381189;19;1537;-40
2024/02/14 10:25:19;;;;;;;;;;;;;;;18.54;58.79;101061.78;7386881;19;1217;-41
2024/02/14 10:27:49;;;;;;;;;;;;;;;18.97;57.90;101065.47;7380638;19;1911;-41
2024/02/14 10:30:21;;;;;;;;;;;;;;;19.09;57.37;101045.66;7385624;19;1938;-35
2024/02/14 10:32:50;;;;;;;;;;;;;;;18.98;57.67;101076.06;7384807;19;1840;-40
2024/02/14 10:35:18;;;;;;;;;;;;;;;18.80;58.19;101073.09;7384030;19;1519;-41
2024/02/14 10:37:48;;;;;;;;;;;;;;;18.68;58.98;101066.00;7383311;19;1483;-41
2024/02/14 10:40:19;;;;;;;;;;;;;;;18.63;59.33;101061.03;7385479;19;1554;-35
2024/02/14 10:42:47;;;;;;;;;;;;;;;18.84;58.84;101065.63;7386416;19;1435;-35
2024/02/14 10:45:16;;;;;;;;;;;;;;;19.15;57.97;101060.38;7386840;19;2052;-40
2024/02/14 10:47:48;;;;;;;;;;;;;;;19.10;58.47;101052.75;7386871;19;1835;-41
2024/02/14 10:50:17;;;;;;;;;;;;;;;18.93;58.52;101051.47;7385577;19;1392;-40
2024/02/14 10:52:48;;;;;;;;;;;;;;;18.69;59.76;101044.44;7384441;19;1851;-42
2024/02/14 10:55:19;;;;;;;;;;;;;;;18.51;59.52;101072.75;7369940;19;1465;-40
2024/02/14 10:57:48;;;;;;;;;;;;;;;18.84;59.22;101058.47;7382214;19;1466;-35
2024/02/14 11:00:20;;;;;;;;;;;;;;;19.25;58.13;101055.94;7383113;19;1763;-36
2024/02/14 11:02:50;;;;;;;;;;;;;;;19.25;58.20;101064.00;7382312;19;1658;-40
2024/02/14 11:05:18;;;;;;;;;;;;;;;19.04;58.55;101070.19;7382379;19;1716;-40
2024/02/14 11:07:48;;;;;;;;;;;;;;;18.78;59.27;101063.41;7380265;19;1654;-41
2024/02/14 11:10:20;;;;;;;;;;;;;;;18.67;59.71;101072.34;7381558;19;1371;-37
2024/02/14 11:12:50;;;;;;;;;;;;;;;18.83;59.30;101053.22;7382144;19;2369;-35
2024/02/14 11:15:17;;;;;;;;;;;;;;;19.14;58.58;101048.81;7382876;19;1144;-36
2024/02/14 11:17:45;;;;;;;;;;;;;;;19.33;58.23;101044.56;7382738;19;1853;-35
2024/02/14 11:20:15;;;;;;;;;;;;;;;19.07;58.62;101051.16;7384860;19;1774;-35
2024/02/14 11:22:52;;;;;;;;;;;;;;;18.84;59.28;101030.78;7385150;19;1720;-35
2024/02/14 11:25:24;;;;;;;;;;;;;;;18.59;59.95;101040.00;7386497;19;1702;-35
2024/02/14 11:27:53;;;;;;;;;;;;;;;18.76;59.48;101038.59;7387961;19;1690;-36
2024/02/14 11:30:34;;;;;;;;;;;;;;;19.21;58.42;101038.41;7388580;19;1636;-35
2024/02/14 11:33:27;;;;;;;;;;;;;;;19.26;58.28;101036.22;7386190;19;1869;-35
2024/02/14 11:35:57;;;;;;;;;;;;;;;18.98;58.85;101038.53;7383487;19;1776;-37
2024/02/14 11:38:26;;;;;;;;;;;;;;;18.82;59.34;101038.09;7385187;19;1728;-35
2024/02/14 11:40:57;;;;;;;;;;;;;;;18.59;59.92;101030.13;7387379;19;1138;-35
2024/02/14 11:43:25;;;;;;;;;;;;;;;18.86;59.12;101037.75;7385644;19;1745;-35
2024/02/14 11:45:55;;;;;;;;;;;;;;;19.22;58.44;101034.78;7387218;19;1221;-40
2024/02/14 11:48:23;;;;;;;;;;;;;;;19.30;58.24;101047.50;7387366;19;1744;-40
2024/02/14 11:50:54;;;;;;;;;;;;;;;19.02;58.77;101040.00;7385129;19;1812;-41
2024/02/14 11:53:23;;;;;;;;;;;;;;;18.88;59.21;101038.47;7383811;19;1849;-40
2024/02/14 11:55:51;;;;;;;;;;;;;;;18.64;59.67;101041.31;7377625;19;1661;-41
2024/02/14 11:58:22;;;;;;;;;;;;;;;18.74;59.62;101035.19;7393559;19;1720;-40
2024/02/14 12:00:51;;;;;;;;;;;;;;;19.14;58.43;101050.63;7394537;19;1132;-41
2024/02/14 12:03:20;;;;;;;;;;;;;;;19.25;58.28;101035.34;7389964;19;1412;-41
2024/02/14 12:05:50;;;;;;;;;;;;;;;18.98;59.05;101038.53;7393367;19;1844;-35
2024/02/14 12:08:19;;;;;;;;;;;;;;;18.83;59.39;101045.19;7393775;19;1854;-35
2024/02/14 12:10:49;;;;;;;;;;;;;;;18.56;59.79;101041.09;7390819;19;1496;-34
2024/02/14 12:13:18;;;;;;;;;;;;;;;18.72;59.44;101035.34;7393549;19;1857;-34
2024/02/14 12:15:51;;;;;;;;;;;;;;;19.06;58.58;101033.38;7393314;19;1008;-40
2024/02/14 12:18:19;;;;;;;;;;;;;;;19.22;58.34;101034.78;7392538;19;1772;-35
2024/02/14 12:20:49;;;;;;;;;;;;;;;18.94;59.23;101036.22;7393967;19;1727;-35
2024/02/14 12:23:19;;;;;;;;;;;;;;;18.77;59.62;101040.31;7393401;19;1647;-36
2024/02/14 12:25:48;;;;;;;;;;;;;;;18.58;59.76;101036.47;7392605;19;1660;-39
2024/02/14 12:28:18;;;;;;;;;;;;;;;18.75;59.67;101040.41;7391493;19;1813;-41
2024/02/14 12:30:49;;;;;;;;;;;;;;;19.15;58.67;101023.69;7392626;19;1625;-35
2024/02/14 12:33:20;;;;;;;;;;;;;;;19.27;58.22;101024.50;7390575;19;1845;-36
2024/02/14 12:35:49;;;;;;;;;;;;;;;19.03;58.69;101035.47;7393455;19;1725;-35
2024/02/14 12:38:18;;;;;;;;;;;;;;;18.82;59.52;101043.47;7392210;19;1415;-34
2024/02/14 12:40:46;;;;;;;;;;;;;;;18.61;59.76;101052.28;7392826;19;1036;-36
2024/02/14 12:43:16;;;;;;;;;;;;;;;18.64;59.79;101044.00;7393378;19;1700;-35
2024/02/14 12:45:44;;;;;;;;;;;;;;;19.07;58.72;101043.09;7390197;19;1619;-35
2024/02/14 12:48:15;;;;;;;;;;;;;;;19.25;58.37;101042.53;7392165;19;1142;-34
2024/02/14 12:50:49;;;;;;;;;;;;;;;19.00;58.69;101039.25;7391272;19;1759;-35
2024/02/14 12:53:14;;;;;;;;;;;;;;;18.80;59.40;101040.06;7391125;19;1847;-36
2024/02/14 12:55:43;;;;;;;;;;;;;;;18.59;60.06;101048.88;7376916;19;1697;-39
2024/02/14 12:58:12;;;;;;;;;;;;;;;18.63;59.71;101049.47;7392972;19;1144;-35